»·PEaware :: N733FU KSNA-KCRQ

N733FU :: KSNA-KCRQ

FLIGHT INFORMATION

Flight Status: Arrived
Operator: Privately registered:
United States
More flights under this callsign
Pilot: Maziyar K. (14298)
Aircraft: CESSNA 172 SKYHAWK
(C172)
More flights by this aircraft type
Origin: KSNA John Wayne-Orange Co
United States
Destination: KCRQ McClellan-Palomar
United States
More flights between these airports :: More routes between these airports
Route: V23 OCN
File this flight plan on PilotEdge
Remarks:
Altitude:
(Current/Filed)
5,000ft
Speed:
(Current/Filed)
110kts
Departed: 13-Jan-21 08:17 PM
Arrived: 13-Jan-21 08:54 PM
Distance/Time
Traveled:
44nm/0:36
Distance/Time
To Go:
Arrived

Flight Plot

Page will automatically refresh every two minutes.


Map Options




Map Legend


Flown Route
Filed Route
Departure Airport
Arrival Airport
Navaid (VOR, NDB)
Fix

Horizontal Profiles

Position Reports

Time Latitude Longitude Heading Altitude Ground
Speed
13-Jan-21 20:01 33.671189 -117.868027 211 60ft 0kts
13-Jan-21 20:02 33.671189 -117.868027 211 60ft 0kts
13-Jan-21 20:03 33.671189 -117.868027 211 60ft 0kts
13-Jan-21 20:04 33.671189 -117.868027 211 60ft 0kts
13-Jan-21 20:05 33.671189 -117.868027 211 60ft 0kts
13-Jan-21 20:06 33.671189 -117.868027 211 60ft 0kts
13-Jan-21 20:07 33.671189 -117.868027 211 60ft 0kts
13-Jan-21 20:08 33.671189 -117.868027 211 60ft 0kts
13-Jan-21 20:09 33.671189 -117.868027 211 60ft 0kts
13-Jan-21 20:10 33.671189 -117.868027 211 60ft 0kts
13-Jan-21 20:11 33.671189 -117.868027 211 60ft 0kts
13-Jan-21 20:12 33.671189 -117.868027 211 60ft 0kts
13-Jan-21 20:13 33.671191 -117.868124 277 60ft 0kts
13-Jan-21 20:14 33.673522 -117.867395 6 60ft 18kts
13-Jan-21 20:15 33.679868 -117.863561 297 60ft 7kts
13-Jan-21 20:16 33.675404 -117.867147 208 60ft 89kts
13-Jan-21 20:17 33.647866 -117.876542 188 1112ft 94kts
13-Jan-21 20:18 33.621281 -117.879828 186 2045ft 105kts
13-Jan-21 20:19 33.591306 -117.883157 179 2849ft 110kts
13-Jan-21 20:20 33.574174 -117.855645 112 3648ft 107kts
13-Jan-21 20:21 33.561203 -117.824047 112 4445ft 104kts
13-Jan-21 20:22 33.547739 -117.792253 113 4964ft 123kts
13-Jan-21 20:23 33.530977 -117.753554 127 4948ft 135kts
13-Jan-21 20:24 33.501847 -117.724626 134 4953ft 135kts
13-Jan-21 20:25 33.474517 -117.693835 131 4951ft 134kts
13-Jan-21 20:26 33.448244 -117.662556 131 4949ft 132kts
13-Jan-21 20:27 33.422313 -117.631959 131 4947ft 130kts
13-Jan-21 20:28 33.396689 -117.601803 131 4946ft 128kts
13-Jan-21 20:29 33.371226 -117.571867 131 4945ft 128kts
13-Jan-21 20:30 33.345873 -117.542085 131 4945ft 128kts
13-Jan-21 20:31 33.320429 -117.512223 131 4945ft 128kts
13-Jan-21 20:32 33.295015 -117.482422 131 4945ft 128kts
13-Jan-21 20:33 33.269648 -117.452702 131 4945ft 128kts
13-Jan-21 20:34 33.244033 -117.422701 130 4945ft 129kts
13-Jan-21 20:35 33.234252 -117.382817 98 4946ft 126kts
13-Jan-21 20:36 33.226508 -117.340872 99 4947ft 127kts
13-Jan-21 20:37 33.218247 -117.296976 99 4947ft 128kts
13-Jan-21 20:38 33.210308 -117.255153 99 4947ft 130kts
13-Jan-21 20:39 33.203698 -117.220331 99 4947ft 131kts
13-Jan-21 20:40 33.196401 -117.177538 94 4947ft 131kts
13-Jan-21 20:41 33.191508 -117.134279 94 4947ft 132kts
13-Jan-21 20:42 33.188765 -117.090228 84 4786ft 140kts
13-Jan-21 20:43 33.190895 -117.041806 84 3992ft 147kts
13-Jan-21 20:44 33.189816 -116.996202 127 3831ft 136kts
13-Jan-21 20:45 33.159734 -117.010841 239 3618ft 136kts
13-Jan-21 20:46 33.159594 -117.056482 275 3339ft 137kts
13-Jan-21 20:47 33.155143 -117.099215 244 3337ft 136kts
13-Jan-21 20:48 33.149552 -117.143174 261 3341ft 134kts
13-Jan-21 20:49 33.142701 -117.187694 261 3096ft 143kts
13-Jan-21 20:50 33.137180 -117.223207 260 1472ft 97kts
13-Jan-21 20:51 33.132852 -117.250558 259 680ft 81kts
13-Jan-21 20:52 33.128779 -117.276436 259 310ft 68kts
13-Jan-21 20:53 33.126903 -117.281726 80 312ft 15kts

Navigation Log

Ident Type
Flight plan parsing failed, navigation log unavailable